VABB/BOM METAR and TAF weather

Enter ICAO airport designator
Station Type Date Time Source
VABB METAR 2019/12/08 03:30 UTC NOAA

VABB 080330Z 09006KT 2500 FU NSC 27/16 Q1015 NOSIG


Station Type Date Time Source
VABB Decoded METAR 2019/12/08 03:30 UTC NOAA

Bombay / Santacruz, India (VABB) 19-07N 072-51E 14M
Dec 07, 2019 - 10:30 PM EST / 2019.12.08 0330 UTC
Wind: from the E (090 degrees) at 7 MPH (6 KT):0
Visibility: 1 mile(s):0
Weather: smoke
Temperature: 80 F (27 C)
Dew Point: 60 F (16 C)
Relative Humidity: 50%
Pressure (altimeter): 29.97 in. Hg (1015 hPa)
ob: VABB 080330Z 09006KT 2500 FU NSC 27/16 Q1015 NOSIG
cycle: 3

Station Type Date Time Source
VABB TAF 2019/12/07 18:03 UTC NOAA

TAF TAF VABB 071700Z 0718/0824 06005KT 3000 HZ FEW100
BECMG 0722/0724 VRB03KT
BECMG 0801/0803 09006KT
BECMG 0809/0811 32008KT 4000 FU NSC
BECMG 0813/0815 04008KT 3000 HZ FU
BECMG 0821/0823 VRB03KT

Example: see airport list